Terminal Aerodrome Forecast
Issued by NWS Grand Forks, ND

Home | Current Version | Previous Version | Text Only | Print | Product List | Glossary Off
Versions: 1 2 3 4 5 6 7 8 9 10 11 12 13 14 15 16 17 18

000
FTUS43 KFGF 171129
TAFGFK
TAF
KGFK 171129Z 1712/1812 19010KT P6SM OVC070
     FM171300 22009KT P6SM OVC120
     FM171400 28008KT P6SM OVC150
     FM171600 32009KT P6SM BKN200
     FM180100 33005KT P6SM SCT200=

USA.gov is the U.S. government's official web portal to all federal, state and local government web resources and services.